sensor_id;sensor_type;location;lat;lon;timestamp;pressure;altitude;pressure_sealevel;temperature;humidity
13800;BME280;6971;50.028;9.258;2023-04-09T00:03:32;100219.47;;;0.28;100.00
13800;BME280;6971;50.028;9.258;2023-04-09T00:08:32;100222.91;;;0.27;100.00
13800;BME280;6971;50.028;9.258;2023-04-09T00:13:33;100216.84;;;0.20;100.00
13800;BME280;6971;50.028;9.258;2023-04-09T00:18:33;100222.03;;;0.09;100.00
13800;BME280;6971;50.028;9.258;2023-04-09T00:23:33;100215.09;;;0.13;100.00
13800;BME280;6971;50.028;9.258;2023-04-09T00:28:34;100213.38;;;0.09;100.00
13800;BME280;6971;50.028;9.258;2023-04-09T00:33:35;100205.59;;;0.07;100.00
13800;BME280;6971;50.028;9.258;2023-04-09T00:38:35;100195.22;;;0.01;100.00
13800;BME280;6971;50.028;9.258;2023-04-09T00:43:35;100201.25;;;-0.05;100.00
13800;BME280;6971;50.028;9.258;2023-04-09T00:48:36;100199.53;;;-0.01;100.00
13800;BME280;6971;50.028;9.258;2023-04-09T00:53:36;100201.25;;;-0.12;100.00
13800;BME280;6971;50.028;9.258;2023-04-09T00:58:36;100205.56;;;-0.05;100.00
13800;BME280;6971;50.028;9.258;2023-04-09T01:03:39;100204.69;;;-0.15;100.00
13800;BME280;6971;50.028;9.258;2023-04-09T01:09:13;100203.81;;;-0.17;100.00
13800;BME280;6971;50.028;9.258;2023-04-09T01:14:26;100202.03;;;-0.31;100.00
13800;BME280;6971;50.028;9.258;2023-04-09T01:19:47;100197.72;;;-0.40;100.00
13800;BME280;6971;50.028;9.258;2023-04-09T01:24:59;100197.72;;;-0.40;100.00
13800;BME280;6971;50.028;9.258;2023-04-09T01:30:03;100190.84;;;-0.23;100.00
13800;BME280;6971;50.028;9.258;2023-04-09T01:35:06;100201.19;;;-0.20;100.00
13800;BME280;6971;50.028;9.258;2023-04-09T01:40:07;100196.88;;;-0.28;100.00
13800;BME280;6971;50.028;9.258;2023-04-09T01:45:09;100193.44;;;-0.17;100.00
13800;BME280;6971;50.028;9.258;2023-04-09T01:50:11;100204.75;;;0.05;100.00
13800;BME280;6971;50.028;9.258;2023-04-09T01:55:11;100200.38;;;0.04;100.00
13800;BME280;6971;50.028;9.258;2023-04-09T02:00:12;100199.56;;;0.15;100.00
13800;BME280;6971;50.028;9.258;2023-04-09T02:05:14;100205.63;;;0.21;100.00
13800;BME280;6971;50.028;9.258;2023-04-09T02:10:18;100203.91;;;0.28;100.00
13800;BME280;6971;50.028;9.258;2023-04-09T02:15:20;100204.75;;;0.43;100.00
13800;BME280;6971;50.028;9.258;2023-04-09T02:20:21;100199.59;;;0.49;100.00
13800;BME280;6971;50.028;9.258;2023-04-09T02:25:21;100207.34;;;0.50;100.00
13800;BME280;6971;50.028;9.258;2023-04-09T02:30:22;100202.16;;;0.60;100.00
13800;BME280;6971;50.028;9.258;2023-04-09T02:35:22;100204.75;;;0.61;100.00
13800;BME280;6971;50.028;9.258;2023-04-09T02:40:22;100198.69;;;0.69;100.00
13800;BME280;6971;50.028;9.258;2023-04-09T02:45:23;100190.91;;;0.72;100.00
13800;BME280;6971;50.028;9.258;2023-04-09T02:50:23;100192.63;;;0.85;100.00
13800;BME280;6971;50.028;9.258;2023-04-09T02:55:23;100188.28;;;0.84;100.00
13800;BME280;6971;50.028;9.258;2023-04-09T03:00:24;100192.59;;;0.95;100.00
13800;BME280;6971;50.028;9.258;2023-04-09T03:05:24;100187.41;;;1.02;100.00
13800;BME280;6971;50.028;9.258;2023-04-09T03:10:24;100183.06;;;1.04;100.00
13800;BME280;6971;50.028;9.258;2023-04-09T03:15:25;100174.38;;;1.12;100.00
13800;BME280;6971;50.028;9.258;2023-04-09T03:20:25;100175.25;;;1.08;100.00
13800;BME280;6971;50.028;9.258;2023-04-09T03:25:26;100163.97;;;1.23;100.00
13800;BME280;6971;50.028;9.258;2023-04-09T03:30:26;100168.28;;;1.27;100.00
13800;BME280;6971;50.028;9.258;2023-04-09T03:35:26;100169.94;;;1.43;100.00
13800;BME280;6971;50.028;9.258;2023-04-09T03:40:26;100164.75;;;1.45;100.00
13800;BME280;6971;50.028;9.258;2023-04-09T03:45:28;100166.47;;;1.48;100.00
13800;BME280;6971;50.028;9.258;2023-04-09T03:50:28;100175.94;;;1.60;100.00
13800;BME280;6971;50.028;9.258;2023-04-09T03:55:29;100171.59;;;1.60;100.00
13800;BME280;6971;50.028;9.258;2023-04-09T04:00:31;100170.72;;;1.64;100.00
13800;BME280;6971;50.028;9.258;2023-04-09T04:05:32;100173.22;;;1.80;100.00
13800;BME280;6971;50.028;9.258;2023-04-09T04:10:33;100174.00;;;1.94;100.00
13800;BME280;6971;50.028;9.258;2023-04-09T04:15:40;100179.25;;;1.90;100.00
13800;BME280;6971;50.028;9.258;2023-04-09T04:20:41;100180.94;;;1.94;100.00
13800;BME280;6971;50.028;9.258;2023-04-09T04:25:41;100178.28;;;2.02;100.00
13800;BME280;6971;50.028;9.258;2023-04-09T04:30:42;100180.88;;;2.03;100.00
13800;BME280;6971;50.028;9.258;2023-04-09T04:35:42;100184.31;;;2.10;100.00
13800;BME280;6971;50.028;9.258;2023-04-09T04:40:42;100184.22;;;2.24;100.00
13800;BME280;6971;50.028;9.258;2023-04-09T04:45:43;100194.63;;;2.21;100.00
13800;BME280;6971;50.028;9.258;2023-04-09T04:50:43;100192.94;;;2.17;100.00
13800;BME280;6971;50.028;9.258;2023-04-09T04:55:44;100191.22;;;2.14;100.00
13800;BME280;6971;50.028;9.258;2023-04-09T05:00:45;100191.09;;;2.30;100.00
13800;BME280;6971;50.028;9.258;2023-04-09T05:05:47;100197.16;;;2.29;100.00
13800;BME280;6971;50.028;9.258;2023-04-09T05:10:48;100200.63;;;2.31;100.00
13800;BME280;6971;50.028;9.258;2023-04-09T05:15:48;100196.19;;;2.45;100.00
13800;BME280;6971;50.028;9.258;2023-04-09T05:20:49;100198.69;;;2.55;100.00
13800;BME280;6971;50.028;9.258;2023-04-09T05:25:49;100203.88;;;2.58;100.00
13800;BME280;6971;50.028;9.258;2023-04-09T05:30:50;100201.25;;;2.59;100.00
13800;BME280;6971;50.028;9.258;2023-04-09T05:35:50;100203.75;;;2.73;100.00
13800;BME280;6971;50.028;9.258;2023-04-09T05:40:53;100203.59;;;2.89;100.00
13800;BME280;6971;50.028;9.258;2023-04-09T05:45:53;100197.41;;;3.03;100.00
13800;BME280;6971;50.028;9.258;2023-04-09T05:50:53;100197.28;;;3.15;100.00
13800;BME280;6971;50.028;9.258;2023-04-09T05:55:54;100195.38;;;3.28;100.00
13800;BME280;6971;50.028;9.258;2023-04-09T06:00:54;100198.63;;;3.47;100.00
13800;BME280;6971;50.028;9.258;2023-04-09T06:05:55;100188.19;;;3.47;100.00
13800;BME280;6971;50.028;9.258;2023-04-09T06:10:55;100201.78;;;3.73;100.00
13800;BME280;6971;50.028;9.258;2023-04-09T06:15:56;100202.28;;;4.00;100.00
13800;BME280;6971;50.028;9.258;2023-04-09T06:21:03;100199.47;;;4.14;100.00
13800;BME280;6971;50.028;9.258;2023-04-09T06:26:05;100210.41;;;4.36;100.00
13800;BME280;6971;50.028;9.258;2023-04-09T06:31:06;100214.16;;;4.75;100.00
13800;BME280;6971;50.028;9.258;2023-04-09T06:36:06;100216.34;;;5.00;100.00
13800;BME280;6971;50.028;9.258;2023-04-09T06:41:06;100200.84;;;5.36;100.00
13800;BME280;6971;50.028;9.258;2023-04-09T06:46:08;100221.16;;;5.66;100.00
13800;BME280;6971;50.028;9.258;2023-04-09T06:51:08;100225.94;;;5.87;100.00
13800;BME280;6971;50.028;9.258;2023-04-09T06:56:09;100227.84;;;6.22;100.00
13800;BME280;6971;50.028;9.258;2023-04-09T07:01:10;100219.31;;;6.50;100.00
13800;BME280;6971;50.028;9.258;2023-04-09T07:06:11;100228.28;;;6.76;98.79
13800;BME280;6971;50.028;9.258;2023-04-09T07:11:12;100233.00;;;6.96;95.52
13800;BME280;6971;50.028;9.258;2023-04-09T07:16:12;100235.00;;;7.21;93.72
13800;BME280;6971;50.028;9.258;2023-04-09T07:21:12;100233.78;;;7.33;90.83
13800;BME280;6971;50.028;9.258;2023-04-09T07:26:13;100225.50;;;7.47;90.74
13800;BME280;6971;50.028;9.258;2023-04-09T07:31:13;100238.31;;;7.58;87.04
13800;BME280;6971;50.028;9.258;2023-04-09T07:36:13;100239.81;;;7.68;83.43
13800;BME280;6971;50.028;9.258;2023-04-09T07:41:14;100233.38;;;7.79;82.02
13800;BME280;6971;50.028;9.258;2023-04-09T07:46:19;100239.22;;;8.17;79.57
13800;BME280;6971;50.028;9.258;2023-04-09T07:51:22;100246.28;;;8.98;75.65
13800;BME280;6971;50.028;9.258;2023-04-09T07:56:22;100244.63;;;9.46;73.42
13800;BME280;6971;50.028;9.258;2023-04-09T08:01:23;100245.47;;;9.47;71.06
13800;BME280;6971;50.028;9.258;2023-04-09T08:06:25;100246.28;;;9.97;70.41
13800;BME280;6971;50.028;9.258;2023-04-09T08:11:26;100248.13;;;10.17;70.06
13800;BME280;6971;50.028;9.258;2023-04-09T08:16:26;100245.75;;;10.55;68.95
13800;BME280;6971;50.028;9.258;2023-04-09T08:21:27;100255.50;;;10.96;66.62
13800;BME280;6971;50.028;9.258;2023-04-09T08:26:28;100266.78;;;11.42;65.47
13800;BME280;6971;50.028;9.258;2023-04-09T08:31:28;100270.75;;;11.91;62.24
13800;BME280;6971;50.028;9.258;2023-04-09T08:36:28;100267.56;;;12.03;60.08
13800;BME280;6971;50.028;9.258;2023-04-09T08:41:29;100276.31;;;12.42;58.79
13800;BME280;6971;50.028;9.258;2023-04-09T08:46:34;100280.53;;;12.46;58.89
13800;BME280;6971;50.028;9.258;2023-04-09T08:51:35;100288.88;;;13.80;54.87
13800;BME280;6971;50.028;9.258;2023-04-09T08:56:35;100280.28;;;14.87;55.36
13800;BME280;6971;50.028;9.258;2023-04-09T09:01:36;100283.47;;;15.09;51.99
13800;BME280;6971;50.028;9.258;2023-04-09T09:06:38;100288.78;;;15.09;51.45
13800;BME280;6971;50.028;9.258;2023-04-09T09:11:44;100285.97;;;14.33;50.39
13800;BME280;6971;50.028;9.258;2023-04-09T09:21:58;100295.56;;;15.73;47.33
13800;BME280;6971;50.028;9.258;2023-04-09T09:26:59;100286.88;;;15.11;48.19
13800;BME280;6971;50.028;9.258;2023-04-09T09:32:00;100283.66;;;13.09;51.53
13800;BME280;6971;50.028;9.258;2023-04-09T09:37:00;100276.59;;;12.18;53.91
13800;BME280;6971;50.028;9.258;2023-04-09T09:42:07;100275.13;;;12.49;54.46
13800;BME280;6971;50.028;9.258;2023-04-09T09:47:08;100271.09;;;12.02;55.16
13800;BME280;6971;50.028;9.258;2023-04-09T09:52:10;100277.25;;;11.83;54.73
13800;BME280;6971;50.028;9.258;2023-04-09T09:57:10;100269.81;;;12.49;52.74
13800;BME280;6971;50.028;9.258;2023-04-09T10:02:22;100272.84;;;12.59;52.58
13800;BME280;6971;50.028;9.258;2023-04-09T10:07:23;100272.56;;;12.09;52.60
13800;BME280;6971;50.028;9.258;2023-04-09T10:12:24;100255.25;;;12.02;53.01
13800;BME280;6971;50.028;9.258;2023-04-09T10:17:25;100263.19;;;12.40;52.78
13800;BME280;6971;50.028;9.258;2023-04-09T10:22:26;100254.88;;;12.11;49.89
13800;BME280;6971;50.028;9.258;2023-04-09T10:27:28;100264.75;;;12.45;46.65
13800;BME280;6971;50.028;9.258;2023-04-09T10:32:34;100261.28;;;12.25;50.66
13800;BME280;6971;50.028;9.258;2023-04-09T10:37:35;100261.81;;;13.73;48.20
13800;BME280;6971;50.028;9.258;2023-04-09T10:42:35;100258.69;;;14.31;46.45
13800;BME280;6971;50.028;9.258;2023-04-09T10:47:41;100259.97;;;13.24;46.98
13800;BME280;6971;50.028;9.258;2023-04-09T10:52:42;100258.19;;;12.71;49.14
13800;BME280;6971;50.028;9.258;2023-04-09T10:57:43;100256.53;;;12.69;50.68
13800;BME280;6971;50.028;9.258;2023-04-09T11:08:00;100253.00;;;12.13;52.79
13800;BME280;6971;50.028;9.258;2023-04-09T11:13:02;100252.63;;;12.58;50.75
13800;BME280;6971;50.028;9.258;2023-04-09T11:18:03;100246.84;;;12.87;50.00
13800;BME280;6971;50.028;9.258;2023-04-09T11:23:06;100236.09;;;12.55;48.98
13800;BME280;6971;50.028;9.258;2023-04-09T11:28:06;100229.78;;;13.10;48.81
13800;BME280;6971;50.028;9.258;2023-04-09T11:33:07;100224.41;;;13.95;46.65
13800;BME280;6971;50.028;9.258;2023-04-09T11:38:08;100227.31;;;14.70;46.20
13800;BME280;6971;50.028;9.258;2023-04-09T11:43:09;100223.63;;;15.03;44.98
13800;BME280;6971;50.028;9.258;2023-04-09T11:48:10;100225.88;;;14.17;47.17
13800;BME280;6971;50.028;9.258;2023-04-09T11:53:21;100224.75;;;13.22;47.84
13800;BME280;6971;50.028;9.258;2023-04-09T11:58:22;100213.31;;;13.73;46.59
13800;BME280;6971;50.028;9.258;2023-04-09T12:03:30;100207.03;;;13.57;46.71
13800;BME280;6971;50.028;9.258;2023-04-09T12:08:35;100210.06;;;13.34;44.62
13800;BME280;6971;50.028;9.258;2023-04-09T12:13:36;100205.94;;;15.33;42.53
13800;BME280;6971;50.028;9.258;2023-04-09T12:18:39;100215.72;;;16.58;38.09
13800;BME280;6971;50.028;9.258;2023-04-09T12:23:39;100207.63;;;15.34;43.49
13800;BME280;6971;50.028;9.258;2023-04-09T12:28:40;100209.03;;;16.25;41.26
13800;BME280;6971;50.028;9.258;2023-04-09T12:33:40;100208.53;;;17.65;39.42
13800;BME280;6971;50.028;9.258;2023-04-09T12:38:41;100207.19;;;16.53;39.22
13800;BME280;6971;50.028;9.258;2023-04-09T12:43:42;100186.78;;;16.26;40.94
13800;BME280;6971;50.028;9.258;2023-04-09T12:48:42;100184.56;;;14.91;41.62
13800;BME280;6971;50.028;9.258;2023-04-09T12:53:43;100181.84;;;15.36;41.26
13800;BME280;6971;50.028;9.258;2023-04-09T12:58:43;100170.75;;;13.76;43.79
13800;BME280;6971;50.028;9.258;2023-04-09T13:03:45;100166.56;;;14.96;42.40
13800;BME280;6971;50.028;9.258;2023-04-09T13:08:45;100167.81;;;15.05;40.46
13800;BME280;6971;50.028;9.258;2023-04-09T13:13:45;100160.78;;;15.04;41.25
13800;BME280;6971;50.028;9.258;2023-04-09T13:18:46;100159.72;;;14.00;42.52
13800;BME280;6971;50.028;9.258;2023-04-09T13:23:46;100157.69;;;14.35;42.67
13800;BME280;6971;50.028;9.258;2023-04-09T13:28:46;100149.34;;;14.27;42.87
13800;BME280;6971;50.028;9.258;2023-04-09T13:33:47;100144.94;;;14.42;42.54
13800;BME280;6971;50.028;9.258;2023-04-09T13:38:47;100142.16;;;14.13;42.60
13800;BME280;6971;50.028;9.258;2023-04-09T13:43:47;100143.44;;;14.06;42.70
13800;BME280;6971;50.028;9.258;2023-04-09T13:48:48;100132.97;;;13.88;43.48
13800;BME280;6971;50.028;9.258;2023-04-09T13:53:49;100131.09;;;13.74;42.95
13800;BME280;6971;50.028;9.258;2023-04-09T13:58:49;100134.31;;;13.47;42.92
13800;BME280;6971;50.028;9.258;2023-04-09T14:03:50;100121.38;;;13.09;43.62
13800;BME280;6971;50.028;9.258;2023-04-09T14:08:51;100113.78;;;13.18;43.11
13800;BME280;6971;50.028;9.258;2023-04-09T14:13:51;100113.84;;;13.51;44.02
13800;BME280;6971;50.028;9.258;2023-04-09T14:18:51;100118.00;;;14.34;41.40
13800;BME280;6971;50.028;9.258;2023-04-09T14:23:52;100103.91;;;14.93;41.21
13800;BME280;6971;50.028;9.258;2023-04-09T14:28:52;100112.34;;;14.85;41.74
13800;BME280;6971;50.028;9.258;2023-04-09T14:33:52;100104.38;;;15.00;40.94
13800;BME280;6971;50.028;9.258;2023-04-09T14:38:53;100107.13;;;14.39;41.88
13800;BME280;6971;50.028;9.258;2023-04-09T14:43:53;100103.88;;;14.64;42.19
13800;BME280;6971;50.028;9.258;2023-04-09T14:48:53;100101.94;;;14.52;41.03
13800;BME280;6971;50.028;9.258;2023-04-09T14:53:53;100105.91;;;15.04;40.93
13800;BME280;6971;50.028;9.258;2023-04-09T14:58:54;100107.75;;;14.28;41.65
13800;BME280;6971;50.028;9.258;2023-04-09T15:03:54;100093.22;;;14.49;42.12
13800;BME280;6971;50.028;9.258;2023-04-09T15:08:55;100096.41;;;14.40;41.35
13800;BME280;6971;50.028;9.258;2023-04-09T15:13:55;100094.50;;;13.97;42.25
13800;BME280;6971;50.028;9.258;2023-04-09T15:18:56;100091.44;;;14.50;41.50
13800;BME280;6971;50.028;9.258;2023-04-09T15:23:59;100085.94;;;14.53;41.96
13800;BME280;6971;50.028;9.258;2023-04-09T15:29:00;100092.00;;;14.70;41.62
13800;BME280;6971;50.028;9.258;2023-04-09T15:34:04;100089.13;;;14.44;41.12
13800;BME280;6971;50.028;9.258;2023-04-09T15:39:05;100088.88;;;14.63;41.17
13800;BME280;6971;50.028;9.258;2023-04-09T15:44:05;100081.91;;;14.77;41.08
13800;BME280;6971;50.028;9.258;2023-04-09T15:49:07;100082.66;;;14.64;39.92
13800;BME280;6971;50.028;9.258;2023-04-09T15:54:07;100078.03;;;14.37;41.21
13800;BME280;6971;50.028;9.258;2023-04-09T15:59:08;100075.22;;;14.40;41.80
13800;BME280;6971;50.028;9.258;2023-04-09T16:04:08;100077.06;;;14.23;42.13
13800;BME280;6971;50.028;9.258;2023-04-09T16:09:09;100081.03;;;13.69;43.16
13800;BME280;6971;50.028;9.258;2023-04-09T16:14:09;100077.63;;;13.67;42.98
13800;BME280;6971;50.028;9.258;2023-04-09T16:19:10;100071.66;;;13.48;43.60
13800;BME280;6971;50.028;9.258;2023-04-09T16:24:11;100082.88;;;13.35;44.50
13800;BME280;6971;50.028;9.258;2023-04-09T16:29:13;100082.88;;;13.35;43.91
13800;BME280;6971;50.028;9.258;2023-04-09T16:34:15;100092.94;;;13.28;43.80
13800;BME280;6971;50.028;9.258;2023-04-09T16:39:17;100086.81;;;13.28;43.92
13800;BME280;6971;50.028;9.258;2023-04-09T16:44:17;100075.88;;;13.18;43.19
13800;BME280;6971;50.028;9.258;2023-04-09T16:49:18;100073.44;;;12.97;43.93
13800;BME280;6971;50.028;9.258;2023-04-09T16:54:18;100070.19;;;12.92;44.23
13800;BME280;6971;50.028;9.258;2023-04-09T16:59:19;100079.81;;;12.77;46.81
13800;BME280;6971;50.028;9.258;2023-04-09T17:04:20;100084.38;;;12.57;44.92
13800;BME280;6971;50.028;9.258;2023-04-09T17:09:20;100072.56;;;12.47;50.07
13800;BME280;6971;50.028;9.258;2023-04-09T17:14:23;100070.84;;;12.28;49.74
13800;BME280;6971;50.028;9.258;2023-04-09T17:19:23;100074.22;;;12.14;49.63
13800;BME280;6971;50.028;9.258;2023-04-09T17:24:23;100084.22;;;12.07;49.93
13800;BME280;6971;50.028;9.258;2023-04-09T17:29:24;100085.03;;;11.71;56.05
13800;BME280;6971;50.028;9.258;2023-04-09T17:34:24;100079.31;;;11.43;58.74
13800;BME280;6971;50.028;9.258;2023-04-09T17:39:25;100079.31;;;11.05;61.73
13800;BME280;6971;50.028;9.258;2023-04-09T17:44:26;100071.28;;;10.68;64.21
13800;BME280;6971;50.028;9.258;2023-04-09T17:49:29;100076.94;;;10.17;68.73
13800;BME280;6971;50.028;9.258;2023-04-09T17:54:34;100071.00;;;9.67;71.65
13800;BME280;6971;50.028;9.258;2023-04-09T17:59:34;100065.72;;;9.22;74.93
13800;BME280;6971;50.028;9.258;2023-04-09T18:04:35;100075.28;;;9.01;77.12
13800;BME280;6971;50.028;9.258;2023-04-09T18:09:36;100081.34;;;8.79;77.94
13800;BME280;6971;50.028;9.258;2023-04-09T18:14:38;100094.78;;;8.44;81.06
13800;BME280;6971;50.028;9.258;2023-04-09T18:19:38;100102.88;;;8.11;82.08
13800;BME280;6971;50.028;9.258;2023-04-09T18:24:38;100114.91;;;7.91;83.84
13800;BME280;6971;50.028;9.258;2023-04-09T18:29:39;100114.19;;;7.57;84.42
13800;BME280;6971;50.028;9.258;2023-04-09T18:34:39;100111.81;;;7.20;88.17
13800;BME280;6971;50.028;9.258;2023-04-09T18:39:40;100104.81;;;7.18;87.80
13800;BME280;6971;50.028;9.258;2023-04-09T18:44:40;100114.38;;;6.89;89.37
13800;BME280;6971;50.028;9.258;2023-04-09T18:49:41;100122.03;;;6.65;90.76
13800;BME280;6971;50.028;9.258;2023-04-09T18:54:41;100122.91;;;6.31;93.35
13800;BME280;6971;50.028;9.258;2023-04-09T18:59:42;100120.03;;;6.06;95.60
13800;BME280;6971;50.028;9.258;2023-04-09T19:04:44;100140.50;;;5.86;97.59
13800;BME280;6971;50.028;9.258;2023-04-09T19:09:44;100137.69;;;5.56;99.05
13800;BME280;6971;50.028;9.258;2023-04-09T19:14:45;100136.09;;;5.47;100.00
13800;BME280;6971;50.028;9.258;2023-04-09T19:19:46;100138.38;;;5.22;100.00
13800;BME280;6971;50.028;9.258;2023-04-09T19:24:46;100141.41;;;5.00;100.00
13800;BME280;6971;50.028;9.258;2023-04-09T19:29:46;100140.66;;;4.95;100.00
13800;BME280;6971;50.028;9.258;2023-04-09T19:34:47;100133.78;;;4.91;100.00
13800;BME280;6971;50.028;9.258;2023-04-09T19:39:47;100125.28;;;4.79;100.00
13800;BME280;6971;50.028;9.258;2023-04-09T19:44:48;100129.25;;;4.53;100.00
13800;BME280;6971;50.028;9.258;2023-04-09T19:49:48;100133.78;;;4.42;100.00
13800;BME280;6971;50.028;9.258;2023-04-09T19:54:52;100131.16;;;4.42;100.00
13800;BME280;6971;50.028;9.258;2023-04-09T19:59:53;100130.53;;;4.29;100.00
13800;BME280;6971;50.028;9.258;2023-04-09T20:04:54;100126.59;;;4.03;100.00
13800;BME280;6971;50.028;9.258;2023-04-09T20:09:54;100138.00;;;3.96;100.00
13800;BME280;6971;50.028;9.258;2023-04-09T20:14:55;100127.78;;;3.82;100.00
13800;BME280;6971;50.028;9.258;2023-04-09T20:19:56;100129.72;;;3.67;100.00
13800;BME280;6971;50.028;9.258;2023-04-09T20:24:56;100124.63;;;3.58;100.00
13800;BME280;6971;50.028;9.258;2023-04-09T20:29:58;100129.06;;;3.52;100.00
13800;BME280;6971;50.028;9.258;2023-04-09T20:34:59;100123.09;;;3.43;100.00
13800;BME280;6971;50.028;9.258;2023-04-09T20:39:59;100126.75;;;3.28;100.00
13800;BME280;6971;50.028;9.258;2023-04-09T20:44:59;100131.19;;;3.21;100.00
13800;BME280;6971;50.028;9.258;2023-04-09T20:50:00;100135.47;;;3.26;100.00
13800;BME280;6971;50.028;9.258;2023-04-09T20:55:01;100126.09;;;3.10;100.00
13800;BME280;6971;50.028;9.258;2023-04-09T21:00:01;100128.69;;;3.13;100.00
13800;BME280;6971;50.028;9.258;2023-04-09T21:05:02;100120.19;;;2.98;100.00
13800;BME280;6971;50.028;9.258;2023-04-09T21:10:02;100108.03;;;2.97;100.00
13800;BME280;6971;50.028;9.258;2023-04-09T21:15:05;100109.97;;;2.80;100.00
13800;BME280;6971;50.028;9.258;2023-04-09T21:20:05;100119.50;;;2.82;100.00
13800;BME280;6971;50.028;9.258;2023-04-09T21:25:06;100109.22;;;2.67;100.00
13800;BME280;6971;50.028;9.258;2023-04-09T21:30:07;100116.31;;;2.51;100.00
13800;BME280;6971;50.028;9.258;2023-04-09T21:35:07;100115.47;;;2.50;100.00
13800;BME280;6971;50.028;9.258;2023-04-09T21:40:10;100117.25;;;2.43;100.00
13800;BME280;6971;50.028;9.258;2023-04-09T21:45:10;100104.28;;;2.40;100.00
13800;BME280;6971;50.028;9.258;2023-04-09T21:50:11;100106.94;;;2.34;100.00
13800;BME280;6971;50.028;9.258;2023-04-09T21:55:11;100101.78;;;2.29;100.00
13800;BME280;6971;50.028;9.258;2023-04-09T22:00:12;100105.34;;;2.17;100.00
13800;BME280;6971;50.028;9.258;2023-04-09T22:05:15;100101.91;;;2.12;100.00
13800;BME280;6971;50.028;9.258;2023-04-09T22:10:15;100101.91;;;2.12;100.00
13800;BME280;6971;50.028;9.258;2023-04-09T22:15:16;100088.97;;;2.06;100.00
13800;BME280;6971;50.028;9.258;2023-04-09T22:20:16;100103.75;;;2.01;100.00
13800;BME280;6971;50.028;9.258;2023-04-09T22:25:16;100107.28;;;1.90;100.00
13800;BME280;6971;50.028;9.258;2023-04-09T22:30:17;100109.94;;;1.87;100.00
13800;BME280;6971;50.028;9.258;2023-04-09T22:35:19;100109.94;;;1.82;100.00
13800;BME280;6971;50.028;9.258;2023-04-09T22:40:20;100127.31;;;1.74;100.00
13800;BME280;6971;50.028;9.258;2023-04-09T22:45:20;100128.06;;;1.93;100.00
13800;BME280;6971;50.028;9.258;2023-04-09T22:50:20;100115.22;;;1.72;100.00
13800;BME280;6971;50.028;9.258;2023-04-09T22:55:21;100124.66;;;1.83;100.00
13800;BME280;6971;50.028;9.258;2023-04-09T23:00:22;100123.06;;;1.65;100.00
13800;BME280;6971;50.028;9.258;2023-04-09T23:05:23;100124.78;;;1.66;100.00
13800;BME280;6971;50.028;9.258;2023-04-09T23:10:24;100107.53;;;1.58;100.00
13800;BME280;6971;50.028;9.258;2023-04-09T23:15:25;100111.97;;;1.40;100.00
13800;BME280;6971;50.028;9.258;2023-04-09T23:20:26;100120.59;;;1.39;100.00
13800;BME280;6971;50.028;9.258;2023-04-09T23:25:26;100108.47;;;1.42;100.00
13800;BME280;6971;50.028;9.258;2023-04-09T23:30:26;100107.59;;;1.40;100.00
13800;BME280;6971;50.028;9.258;2023-04-09T23:35:27;100098.97;;;1.34;100.00
13800;BME280;6971;50.028;9.258;2023-04-09T23:40:27;100101.53;;;1.46;100.00
13800;BME280;6971;50.028;9.258;2023-04-09T23:45:27;100092.97;;;1.27;100.00
13800;BME280;6971;50.028;9.258;2023-04-09T23:50:27;100081.69;;;1.31;100.00
13800;BME280;6971;50.028;9.258;2023-04-09T23:55:28;100083.50;;;1.18;100.00
